Shenzhen Bao'an International Airport
ZGSZ : rendu visible

Aérodrome :











RETROUVEZ-NOUS SUR...

 
LOGIN :

S'inscrire | Disclaimer

   EN    FR    IT 

 









Légende :    VFR   VFR Marginal   IFR   IFR Intensif   IFR Très Intensif
Visi : 
Plafond : 
>= 8 km
>= 3000ft
5 à 8 km
1000 à 3000 ft
1500m à 5 km
500 à 1000 ft
800 à 1500m
200 à 500 ft
< 800m
< 200 ft
Symboles :   Orages  Brouillard  Fortes neiges  Fortes précipitations  Vent > 20 kt







- Altitude de l'aérodrome : 13 ft
- Code IATA : SZX


ZGSZ - Shenzhen Bao'an International

DERNIER METAR :
  • 190300Z 18003MPS 9999 SCT017 31/27 Q1009 NOSIG

METARs EXPIRÉS :
  • 190200Z 19003MPS 9999 FEW017 30/26 Q1009 NOSIG
  • 190100Z 22002MPS 190V250 9999 SCT017 30/27 Q1009 NOSIG

TAF TAF ZGSZ
Valide du 19 à 00h jusqu'au 20 à 00h UTC


181912Z 1900/1924 17004MPS 8000 SCT020 TX32/1906Z TN28/1922Z
TEMPO 1900/1906 SHRA SCT015 FEW020CB BKN030
FIR ZGZU / Asie



MET'MAP, la Météo Aéronautique d'un coup d'oeil ! - Copyright ORBIFLY Décembre 2007 - Disclaimer

ORBIFLY MET'MAP TEAM :

Programmation & Développement : Alexandra Zaïnal
Conception & Développement : Baudouin d'Aumeries
Co-Programmation & Développement : Marc-Olivier Méhu
Soutien technique & logistique : Manuel Goepfert

Contact : metmap@orbifly.com




SOURCES & CREDITS :

   NOAA       Earth
Advisory